Grafenwohr Army Air Field ETIC

Flugplatz Daten

Name: Grafenwohr Army Air Field

Ident: ETIC

Lat: 49,69869995

Long: 11,94019985

Platzhöhe: 1363 ft

IataCode:

City:

Metar

2021/10/25 21:56
ETIC 252156Z AUTO 00000KT 6000 BR OVC140 02/01 A3014 RMK AO2 SLP224 T00150009 401071041 $

Taf

2021/10/25 18:00
TAF ETIC 251800Z 2518/2624 VRB06KT 9999 BKN160 QNH3013INS
BECMG 2521/2522 VRB06KT 6000 BR SCT080 QNH3013INS
BECMG 2601/2602 VRB03KT 3200 BR FEW007 SCT040 QNH3013INS
TEMPO 2603/2608 0800 FG VV002
BECMG 2608/2609 22005KT 9999 NSW BKN007 OVC015 QNH3019INS
TEMPO 2609/2617 8000 -SHRA 610604 TX10/2613Z TNM01/2604Z
Gewünschte Webcam nicht vorhanden? Dann fügen Sie eine hinzu. Sie wird dann so schnell wie möglich freigeschaltet
Url: Title: